Derby, Kansas
Current Conditions -  °F | °C
As of 7:58 PM on Friday 19 Dec 2014 (Local Time) from KIAB Reporting Station
Overcast Overcast  
Wind Chill: 31°   Ceiling: 1400
Heat Index: 36°   Visibility: 10mi
Dew Point: 33°   Wind: 6mph
Humidity: 89%   Direction: 150°SSE
Pressure: 30.18"   Gusts: NA
Location:  37.54°N, 97.27°W
Report Text: KIAB 200158Z AUTO 15005KT 10SM OVC014 02/01 A3018 RMK AO2 SLP234 T00230007
Loading
Personal Weather Stations






























Interactive Weather Map New forecast layout! Learn more

10-Day Weather Forecast

Advertisements
Track Severe Weather on mobile